createdAt,value
2018-06-11T00:00:00.823Z,10.8
2018-06-11T00:05:00.769Z,11.2
2018-06-11T00:10:00.851Z,10.3
2018-06-11T00:15:00.728Z,9.6
2018-06-11T00:20:00.780Z,9.5
2018-06-11T00:25:00.727Z,9.9
2018-06-11T00:30:00.763Z,10.0
2018-06-11T00:35:00.739Z,10.3
2018-06-11T00:40:00.767Z,10.5
2018-06-11T00:45:00.767Z,11.2
2018-06-11T00:50:05.864Z,11.0
2018-06-11T00:55:00.736Z,10.7
2018-06-11T01:00:00.769Z,11.5
2018-06-11T01:05:00.768Z,11.2
2018-06-11T01:10:01.812Z,10.4
2018-06-11T01:15:00.745Z,10.0
2018-06-11T01:20:00.881Z,10.1
2018-06-11T01:25:00.722Z,9.1
2018-06-11T01:30:00.879Z,9.1
2018-06-11T01:35:00.755Z,10.1
2018-06-11T01:40:00.822Z,10.4
2018-06-11T01:45:00.753Z,10.3
2018-06-11T01:50:00.876Z,11.4
2018-06-11T01:55:00.760Z,11.7
2018-06-11T02:00:00.902Z,11.4
2018-06-11T02:05:00.754Z,11.3
2018-06-11T02:10:00.884Z,12.0
2018-06-11T02:15:00.752Z,11.6
2018-06-11T02:20:00.915Z,11.9
2018-06-11T02:25:05.765Z,12.1
2018-06-11T02:30:00.759Z,12.6
2018-06-11T02:35:00.764Z,12.5
2018-06-11T02:40:00.954Z,12.6
2018-06-11T02:45:00.758Z,12.8
2018-06-11T02:50:00.828Z,13.3
2018-06-11T02:55:00.767Z,13.6
2018-06-11T03:00:00.835Z,14.3
2018-06-11T03:05:00.792Z,14.8
2018-06-11T03:10:01.537Z,15.4
2018-06-11T03:15:00.765Z,16.4
2018-06-11T03:20:00.829Z,16.1
2018-06-11T03:25:00.775Z,15.3
2018-06-11T03:30:00.836Z,14.1
2018-06-11T03:35:00.776Z,13.4
2018-06-11T03:40:00.909Z,11.8
2018-06-11T03:45:00.776Z,11.3
2018-06-11T03:50:00.848Z,10.6
2018-06-11T03:55:00.771Z,9.8
2018-06-11T04:00:00.859Z,9.5
2018-06-11T04:05:00.813Z,8.9
2018-06-11T04:10:00.910Z,8.3
2018-06-11T04:15:00.784Z,8.1
2018-06-11T04:20:00.888Z,8.6
2018-06-11T04:25:00.804Z,7.8
2018-06-11T04:30:00.848Z,8.1
2018-06-11T04:35:00.789Z,8.5
2018-06-11T04:40:00.921Z,8.4
2018-06-11T04:45:00.768Z,8.4
2018-06-11T04:50:00.931Z,9.0
2018-06-11T04:55:00.768Z,8.3
2018-06-11T05:00:00.893Z,7.9
2018-06-11T05:05:00.868Z,8.5
2018-06-11T05:10:05.925Z,8.6
2018-06-11T05:15:00.807Z,8.5
2018-06-11T05:20:05.982Z,8.7
2018-06-11T05:25:00.809Z,8.9
2018-06-11T05:30:05.877Z,8.8
2018-06-11T05:35:00.821Z,9.0
2018-06-11T05:40:00.937Z,8.7
2018-06-11T05:45:00.814Z,9.1
2018-06-11T05:55:00.903Z,8.9
2018-06-11T06:00:00.963Z,8.8
2018-06-11T06:10:01.000Z,9.4
2018-06-11T06:15:00.846Z,9.3
2018-06-11T06:20:01.001Z,9.8
2018-06-11T06:25:00.848Z,9.5
2018-06-11T06:30:00.989Z,10.4
2018-06-11T06:35:00.886Z,9.4
2018-06-11T06:40:00.926Z,9.5
2018-06-11T06:45:00.831Z,9.2
2018-06-11T06:50:00.858Z,9.6
2018-06-11T06:55:00.857Z,8.5
2018-06-11T07:00:00.989Z,8.4
2018-06-11T07:05:00.822Z,8.3
2018-06-11T07:15:00.983Z,8.0
2018-06-11T07:20:00.940Z,7.9
2018-06-11T07:25:00.864Z,8.2
2018-06-11T07:30:00.871Z,7.9
2018-06-11T07:40:00.902Z,8.0
2018-06-11T07:45:00.833Z,8.2
2018-06-11T07:55:00.990Z,8.7
2018-06-11T08:00:01.020Z,8.9
2018-06-11T08:05:00.837Z,9.2
2018-06-11T08:10:01.004Z,9.5
2018-06-11T08:15:00.879Z,9.9
2018-06-11T08:20:00.965Z,9.6
2018-06-11T08:25:00.936Z,10.0
2018-06-11T08:30:01.004Z,9.9
2018-06-11T08:40:00.977Z,9.4
2018-06-11T08:45:00.841Z,10.0
2018-06-11T08:50:00.953Z,9.3
2018-06-11T08:55:00.855Z,8.8
2018-06-11T09:00:01.037Z,8.6
2018-06-11T09:10:05.952Z,8.2
2018-06-11T09:15:00.894Z,8.4
2018-06-11T09:20:00.944Z,8.3
2018-06-11T09:25:00.973Z,9.1
2018-06-11T09:30:05.901Z,9.3
2018-06-11T09:35:00.862Z,9.1
2018-06-11T09:40:00.966Z,9.2
2018-06-11T09:45:00.888Z,9.2
2018-06-11T09:50:00.951Z,8.3
2018-06-11T09:55:00.874Z,8.0
2018-06-11T10:00:00.893Z,8.8
2018-06-11T10:05:00.861Z,8.2
2018-06-11T10:10:00.999Z,8.6
2018-06-11T10:15:00.841Z,8.9
2018-06-11T10:20:00.937Z,9.2
2018-06-11T10:25:00.814Z,9.4
2018-06-11T10:30:00.916Z,9.9
2018-06-11T10:35:00.849Z,9.4
2018-06-11T10:40:00.942Z,9.8
2018-06-11T10:45:00.910Z,9.9
2018-06-11T10:50:06.046Z,9.4
2018-06-11T10:55:00.923Z,9.5
2018-06-11T11:00:01.036Z,9.6
2018-06-11T11:05:00.941Z,9.4
2018-06-11T11:10:00.973Z,8.8
2018-06-11T11:15:00.910Z,8.4
2018-06-11T11:20:01.002Z,8.1
2018-06-11T11:25:00.925Z,9.0
2018-06-11T11:30:00.988Z,9.2
2018-06-11T11:35:00.923Z,9.6
2018-06-11T11:40:00.989Z,9.9
2018-06-11T11:45:00.920Z,10.5
2018-06-11T11:55:00.993Z,10.2
2018-06-11T12:00:00.997Z,10.1
2018-06-11T12:05:00.993Z,10.8
2018-06-11T12:10:01.000Z,10.9
2018-06-11T12:15:05.911Z,10.0
2018-06-11T12:25:00.934Z,10.4
2018-06-11T12:30:01.038Z,9.6
2018-06-11T12:35:00.906Z,9.0
2018-06-11T12:40:00.979Z,9.5
2018-06-11T12:45:00.989Z,9.7
2018-06-11T12:50:00.998Z,9.6
2018-06-11T12:55:00.940Z,9.8
2018-06-11T13:00:01.042Z,10.0
2018-06-11T13:05:00.933Z,9.9
2018-06-11T13:15:01.233Z,9.4
2018-06-11T13:20:01.108Z,9.0
2018-06-11T13:25:00.937Z,8.3
2018-06-11T13:30:01.079Z,8.2
2018-06-11T13:35:00.950Z,7.9
2018-06-11T13:40:01.015Z,8.2
2018-06-11T13:45:00.977Z,8.4
2018-06-11T13:50:01.033Z,9.2
2018-06-11T14:00:01.084Z,9.8
2018-06-11T14:05:01.031Z,10.4
2018-06-11T14:15:01.132Z,10.4
2018-06-11T14:20:01.029Z,10.5
2018-06-11T14:25:01.780Z,10.8
2018-06-11T14:30:01.000Z,10.4
2018-06-11T14:35:00.931Z,10.2
2018-06-11T14:40:01.013Z,10.5
2018-06-11T14:45:00.935Z,10.6
2018-06-11T14:50:01.013Z,10.2
2018-06-11T14:55:00.949Z,9.8
2018-06-11T15:00:01.018Z,10.2
2018-06-11T15:10:01.070Z,10.3
2018-06-11T15:15:01.053Z,10.8
2018-06-11T15:20:01.075Z,11.1
2018-06-11T15:25:05.961Z,11.0
2018-06-11T15:30:01.054Z,11.1
2018-06-11T15:35:00.988Z,10.9
2018-06-11T15:40:01.123Z,10.8
2018-06-11T15:45:00.984Z,10.7
2018-06-11T15:50:01.054Z,10.9
2018-06-11T15:55:00.993Z,10.4
2018-06-11T16:00:06.098Z,10.3
2018-06-11T16:05:00.961Z,9.5
2018-06-11T16:10:06.035Z,9.7
2018-06-11T16:15:00.965Z,9.4
2018-06-11T16:20:01.120Z,9.8
2018-06-11T16:25:01.005Z,10.3
2018-06-11T16:30:01.003Z,10.9
2018-06-11T16:35:00.999Z,10.0
2018-06-11T16:40:01.548Z,9.8
2018-06-11T16:45:01.010Z,9.5
2018-06-11T16:50:01.200Z,8.9
2018-06-11T16:55:00.970Z,8.4
2018-06-11T17:00:01.051Z,8.6
2018-06-11T17:05:05.988Z,8.8
2018-06-11T17:10:01.066Z,8.7
2018-06-11T17:15:00.941Z,8.5
2018-06-11T17:20:01.074Z,8.8
2018-06-11T17:30:01.049Z,8.8
2018-06-11T17:35:01.009Z,9.0
2018-06-11T17:40:01.078Z,9.4
2018-06-11T17:45:01.005Z,9.3
2018-06-11T17:50:01.013Z,9.6
2018-06-11T17:55:01.020Z,10.0
2018-06-11T18:00:01.059Z,10.6
2018-06-11T18:05:01.014Z,11.4
2018-06-11T18:15:01.156Z,11.1
2018-06-11T18:20:01.180Z,11.0
2018-06-11T18:25:01.032Z,10.4
2018-06-11T18:30:01.162Z,9.4
2018-06-11T18:35:00.988Z,9.5
2018-06-11T18:40:01.011Z,9.2
2018-06-11T18:45:00.993Z,8.6
2018-06-11T18:50:01.074Z,8.0
2018-06-11T18:55:01.081Z,7.8
2018-06-11T19:00:06.196Z,7.5
2018-06-11T19:05:01.069Z,7.4
2018-06-11T19:15:01.011Z,7.3
2018-06-11T19:20:06.076Z,6.8
2018-06-11T19:25:01.009Z,6.1
2018-06-11T19:30:01.071Z,6.1
2018-06-11T19:35:01.043Z,5.7
2018-06-11T19:40:01.087Z,5.3
2018-06-11T19:45:01.016Z,5.4
2018-06-11T19:55:01.211Z,5.1
2018-06-11T20:00:01.211Z,5.3
2018-06-11T20:05:01.118Z,5.1
2018-06-11T20:10:01.154Z,4.9
2018-06-11T20:15:01.079Z,4.8
2018-06-11T20:20:01.119Z,4.9
2018-06-11T20:25:01.039Z,5.2
2018-06-11T20:30:01.161Z,5.2
2018-06-11T20:35:06.034Z,5.0
2018-06-11T20:40:01.241Z,5.3
2018-06-11T20:45:02.128Z,5.6
2018-06-11T20:50:01.175Z,5.1
2018-06-11T20:55:01.044Z,5.5
2018-06-11T21:00:01.108Z,6.1
2018-06-11T21:05:06.044Z,5.8
2018-06-11T21:10:01.166Z,6.0
2018-06-11T21:15:01.034Z,6.0
2018-06-11T21:20:06.174Z,6.2
2018-06-11T21:25:01.052Z,5.8
2018-06-11T21:30:11.122Z,6.1
2018-06-11T21:35:01.080Z,6.3
2018-06-11T21:40:06.120Z,6.1
2018-06-11T21:45:01.052Z,5.7
2018-06-11T21:50:01.047Z,5.9
2018-06-11T21:55:01.053Z,5.7
2018-06-11T22:00:01.049Z,4.7
2018-06-11T22:10:01.313Z,4.3
2018-06-11T22:15:01.093Z,4.1
2018-06-11T22:20:01.219Z,3.7
2018-06-11T22:25:01.054Z,3.8
2018-06-11T22:30:01.165Z,3.6
2018-06-11T22:40:01.188Z,3.4
2018-06-11T22:45:01.090Z,3.5
2018-06-11T22:55:01.097Z,3.7
2018-06-11T23:00:01.231Z,3.9
2018-06-11T23:05:01.135Z,4.1
2018-06-11T23:10:01.174Z,4.4
2018-06-11T23:15:02.268Z,4.2
2018-06-11T23:35:01.003Z,6.4
2018-06-11T23:40:00.983Z,5.2
2018-06-11T23:45:00.920Z,5.0
2018-06-11T23:50:01.059Z,4.8
2018-06-11T23:55:00.983Z,4.7
